createdAt,value
2022-09-15T00:01:10.300Z,99305.73
2022-09-15T00:03:44.700Z,99299.96
2022-09-15T00:06:12.990Z,99297.88
2022-09-15T00:08:41.258Z,99289.21
2022-09-15T00:11:15.847Z,99286.05
2022-09-15T00:13:44.136Z,99279.98
2022-09-15T00:16:15.244Z,99267.41
2022-09-15T00:18:44.001Z,99265.29
2022-09-15T00:21:13.902Z,99268.70
2022-09-15T00:23:41.809Z,99278.47
2022-09-15T00:26:10.972Z,99272.90
2022-09-15T00:28:39.469Z,99277.80
2022-09-15T00:31:09.384Z,99282.58
2022-09-15T00:33:37.940Z,99281.83
2022-09-15T00:36:07.263Z,99283.25
2022-09-15T00:38:36.137Z,99271.44
2022-09-15T00:41:04.637Z,99271.65
2022-09-15T00:43:51.125Z,99261.08
2022-09-15T00:46:21.638Z,99252.61
2022-09-15T00:48:55.860Z,99246.97
2022-09-15T00:51:27.553Z,99236.55
2022-09-15T00:53:57.519Z,99233.11
2022-09-15T00:56:26.143Z,99230.19
2022-09-15T00:58:57.535Z,99223.00
2022-09-15T01:01:26.163Z,99217.75
2022-09-15T01:03:54.487Z,99212.67
2022-09-15T01:06:42.531Z,99217.39
2022-09-15T01:09:22.448Z,99213.86
2022-09-15T01:11:50.390Z,99210.85
2022-09-15T01:14:18.827Z,99214.33
2022-09-15T01:16:55.831Z,99213.47
2022-09-15T01:19:32.448Z,99209.83
2022-09-15T01:22:00.296Z,99211.80
2022-09-15T01:24:28.181Z,99208.58
2022-09-15T01:27:30.901Z,99212.81
2022-09-15T01:30:11.583Z,99215.15
2022-09-15T01:33:04.478Z,99207.48
2022-09-15T01:35:52.529Z,99202.59
2022-09-15T01:38:23.864Z,99197.59
2022-09-15T01:40:57.690Z,99195.23
2022-09-15T01:43:26.503Z,99187.65
2022-09-15T01:45:54.324Z,99185.88
2022-09-15T01:48:24.634Z,99181.08
2022-09-15T01:50:54.821Z,99184.55
2022-09-15T01:53:23.803Z,99186.54
2022-09-15T01:55:58.869Z,99186.66
2022-09-15T01:58:27.414Z,99181.64
2022-09-15T02:01:01.245Z,99177.59
2022-09-15T02:03:33.728Z,99174.04
2022-09-15T02:06:04.661Z,99169.73
2022-09-15T02:08:40.326Z,99173.50
2022-09-15T02:11:19.234Z,99187.20
2022-09-15T02:13:48.773Z,99189.39
2022-09-15T02:16:21.564Z,99183.05
2022-09-15T02:19:01.674Z,99183.35
2022-09-15T02:21:44.699Z,99181.83
2022-09-15T02:24:16.528Z,99175.89
2022-09-15T02:26:46.364Z,99176.46
2022-09-15T02:29:17.489Z,99172.77
2022-09-15T02:31:46.393Z,99166.78
2022-09-15T02:34:20.791Z,99163.59
2022-09-15T02:36:50.053Z,99168.52
2022-09-15T02:39:19.793Z,99164.61
2022-09-15T02:41:49.066Z,99159.10
2022-09-15T02:44:16.876Z,99158.36
2022-09-15T02:46:44.902Z,99153.48
2022-09-15T02:49:13.294Z,99146.79
2022-09-15T02:51:41.002Z,99146.71
2022-09-15T02:54:09.098Z,99152.36
2022-09-15T02:56:37.285Z,99147.92
2022-09-15T02:59:05.017Z,99149.73
2022-09-15T03:01:35.040Z,99159.36
2022-09-15T03:04:03.955Z,99159.25
2022-09-15T03:06:35.071Z,99162.20
2022-09-15T03:09:07.731Z,99160.16
2022-09-15T03:11:36.479Z,99160.24
2022-09-15T03:14:06.192Z,99157.73
2022-09-15T03:16:34.999Z,99149.59
2022-09-15T03:19:03.320Z,99153.15
2022-09-15T03:21:31.843Z,99153.13
2022-09-15T03:23:59.899Z,99146.54
2022-09-15T03:26:28.030Z,99146.01
2022-09-15T03:28:56.051Z,99138.52
2022-09-15T03:31:23.896Z,99136.80
2022-09-15T03:33:56.429Z,99136.42
2022-09-15T03:36:24.285Z,99136.77
2022-09-15T03:38:52.711Z,99140.81
2022-09-15T03:41:20.655Z,99147.49
2022-09-15T03:43:48.795Z,99155.48
2022-09-15T03:46:16.607Z,99162.13
2022-09-15T03:48:44.861Z,99169.73
2022-09-15T03:51:13.316Z,99179.98
2022-09-15T03:53:42.069Z,99180.38
2022-09-15T03:56:22.850Z,99180.23
2022-09-15T03:58:51.062Z,99184.18
2022-09-15T04:01:19.972Z,99188.27
2022-09-15T04:03:51.064Z,99184.34
2022-09-15T04:06:20.166Z,99185.80
2022-09-15T04:08:48.807Z,99192.19
2022-09-15T04:11:17.776Z,99195.02
2022-09-15T04:13:46.221Z,99194.60
2022-09-15T04:16:16.209Z,99195.73
2022-09-15T04:18:44.267Z,99199.37
2022-09-15T04:21:14.065Z,99200.16
2022-09-15T04:23:42.738Z,99204.48
2022-09-15T04:26:16.686Z,99209.35
2022-09-15T04:28:44.485Z,99210.71
2022-09-15T04:31:14.033Z,99214.08
2022-09-15T04:33:42.666Z,99214.98
2022-09-15T04:36:12.368Z,99228.52
2022-09-15T04:38:40.676Z,99229.27
2022-09-15T04:41:09.165Z,99226.64
2022-09-15T04:43:36.847Z,99228.95
2022-09-15T04:46:04.822Z,99230.39
2022-09-15T04:48:32.906Z,99234.33
2022-09-15T04:51:01.953Z,99235.59
2022-09-15T04:53:30.151Z,99238.41
2022-09-15T04:56:05.669Z,99237.88
2022-09-15T04:58:47.396Z,99234.05
2022-09-15T05:01:16.869Z,99237.41
2022-09-15T05:03:46.651Z,99239.54
2022-09-15T05:06:16.104Z,99237.11
2022-09-15T05:08:47.077Z,99235.27
2022-09-15T05:11:15.444Z,99235.03
2022-09-15T05:13:44.381Z,99236.36
2022-09-15T05:16:13.635Z,99232.77
2022-09-15T05:18:42.512Z,99227.61
2022-09-15T05:21:11.595Z,99235.93
2022-09-15T05:23:39.877Z,99229.16
2022-09-15T05:26:08.832Z,99226.87
2022-09-15T05:28:37.358Z,99232.23
2022-09-15T05:31:09.378Z,99239.09
2022-09-15T05:33:37.724Z,99245.20
2022-09-15T05:36:06.052Z,99250.96
2022-09-15T05:38:34.559Z,99251.04
2022-09-15T05:41:07.389Z,99255.70
2022-09-15T05:43:36.751Z,99254.56
2022-09-15T05:46:05.120Z,99248.94
2022-09-15T05:48:33.687Z,99252.61
2022-09-15T05:51:02.413Z,99259.34
2022-09-15T05:53:33.095Z,99261.16
2022-09-15T05:56:03.097Z,99257.19
2022-09-15T05:58:31.752Z,99264.52
2022-09-15T06:01:08.029Z,99275.60
2022-09-15T06:03:36.069Z,99285.94
2022-09-15T06:06:04.967Z,99295.08
2022-09-15T06:08:34.181Z,99297.77
2022-09-15T06:11:05.472Z,99297.58
2022-09-15T06:13:33.473Z,99297.83
2022-09-15T06:16:02.062Z,99297.51
2022-09-15T06:18:30.439Z,99296.23
2022-09-15T06:21:02.399Z,99307.09
2022-09-15T06:23:30.636Z,99318.63
2022-09-15T06:26:04.225Z,99327.34
2022-09-15T06:28:33.032Z,99334.55
2022-09-15T06:31:01.216Z,99335.91
2022-09-15T06:33:29.331Z,99333.56
2022-09-15T06:36:00.095Z,99332.81
2022-09-15T06:38:28.103Z,99336.59
2022-09-15T06:40:57.058Z,99330.75
2022-09-15T06:43:25.438Z,99333.96
2022-09-15T06:45:53.645Z,99338.20
2022-09-15T06:48:24.955Z,99332.45
2022-09-15T06:50:55.518Z,99337.77
2022-09-15T06:53:23.696Z,99344.95
2022-09-15T06:55:51.748Z,99348.75
2022-09-15T06:58:19.819Z,99354.02
2022-09-15T07:00:47.697Z,99357.77
2022-09-15T07:03:15.818Z,99356.22
2022-09-15T07:05:44.212Z,99367.58
2022-09-15T07:08:12.333Z,99382.73
2022-09-15T07:10:42.655Z,99383.52
2022-09-15T07:13:10.723Z,99384.23
2022-09-15T07:15:39.352Z,99390.08
2022-09-15T07:18:07.312Z,99398.34
2022-09-15T07:20:38.310Z,99401.64
2022-09-15T07:23:06.138Z,99404.99
2022-09-15T07:25:34.409Z,99405.77
2022-09-15T07:28:02.408Z,99407.31
2022-09-15T07:30:30.198Z,99404.84
2022-09-15T07:32:58.473Z,99403.54
2022-09-15T07:35:26.242Z,99403.19
2022-09-15T07:37:54.420Z,99406.36
2022-09-15T07:40:23.218Z,99409.38
2022-09-15T07:42:51.171Z,99409.59
2022-09-15T07:45:19.306Z,99404.27
2022-09-15T07:47:47.236Z,99401.23
2022-09-15T07:50:15.439Z,99410.61
2022-09-15T07:52:43.531Z,99416.15
2022-09-15T07:55:11.694Z,99424.64
2022-09-15T07:57:39.472Z,99428.92
2022-09-15T08:00:07.785Z,99427.29
2022-09-15T08:02:39.906Z,99427.45
2022-09-15T08:05:08.053Z,99429.92
2022-09-15T08:07:36.058Z,99432.88
2022-09-15T08:10:04.025Z,99439.78
2022-09-15T08:12:31.764Z,99432.90
2022-09-15T08:14:59.576Z,99429.06
2022-09-15T08:17:27.392Z,99430.55
2022-09-15T08:19:55.423Z,99429.94
2022-09-15T08:22:23.580Z,99439.50
2022-09-15T08:24:52.206Z,99436.97
2022-09-15T08:27:20.269Z,99435.02
2022-09-15T08:29:48.553Z,99439.34
2022-09-15T08:32:16.679Z,99438.48
2022-09-15T08:34:44.692Z,99439.71
2022-09-15T08:37:13.436Z,99441.82
2022-09-15T08:39:41.727Z,99440.17
2022-09-15T08:42:14.209Z,99429.84
2022-09-15T08:44:48.692Z,99424.42
2022-09-15T08:47:16.580Z,99416.33
2022-09-15T08:49:52.670Z,99419.55
2022-09-15T08:52:32.714Z,99420.51
2022-09-15T08:55:03.520Z,99429.05
2022-09-15T08:57:31.470Z,99426.46
2022-09-15T08:59:59.773Z,99420.91
2022-09-15T09:02:38.320Z,99423.81
2022-09-15T09:05:30.446Z,99422.38
2022-09-15T09:08:17.351Z,99427.53
2022-09-15T09:11:03.911Z,99433.77
2022-09-15T09:13:45.964Z,99430.96
2022-09-15T09:16:14.184Z,99427.34
2022-09-15T09:18:47.322Z,99431.70
2022-09-15T09:21:22.458Z,99430.51
2022-09-15T09:23:58.280Z,99421.95
2022-09-15T09:26:28.368Z,99420.73
2022-09-15T09:28:59.099Z,99424.28
2022-09-15T09:31:27.970Z,99426.91
2022-09-15T09:34:04.718Z,99430.25
2022-09-15T09:36:33.490Z,99421.04
2022-09-15T09:39:02.385Z,99407.67
2022-09-15T09:41:36.412Z,99397.94
2022-09-15T09:44:07.119Z,99393.89
2022-09-15T09:46:35.261Z,99394.92
2022-09-15T09:49:16.884Z,99393.42
2022-09-15T09:51:55.648Z,99390.77
2022-09-15T09:54:27.468Z,99386.84
2022-09-15T09:56:56.894Z,99383.58
2022-09-15T09:59:32.761Z,99386.35
2022-09-15T10:02:05.019Z,99383.31
2022-09-15T10:04:33.258Z,99384.79
2022-09-15T10:07:01.288Z,99381.21
2022-09-15T10:09:33.252Z,99378.80
2022-09-15T10:12:02.192Z,99371.02
2022-09-15T10:14:38.161Z,99372.05
2022-09-15T10:17:06.082Z,99364.54
2022-09-15T10:19:44.112Z,99356.72
2022-09-15T10:22:21.797Z,99354.91
2022-09-15T10:24:50.685Z,99350.34
2022-09-15T10:27:18.484Z,99349.04
2022-09-15T10:29:47.017Z,99352.99
2022-09-15T10:32:25.541Z,99347.35
2022-09-15T10:35:16.712Z,99345.52
2022-09-15T10:38:03.419Z,99340.77
2022-09-15T10:40:31.553Z,99335.10
2022-09-15T10:43:17.921Z,99336.89
2022-09-15T10:45:51.366Z,99335.91
2022-09-15T10:48:37.864Z,99337.27
2022-09-15T10:51:28.937Z,99330.36
2022-09-15T10:54:15.188Z,99320.14
2022-09-15T10:56:52.103Z,99321.48
2022-09-15T10:59:43.470Z,99319.11
2022-09-15T11:02:25.760Z,99307.24
2022-09-15T11:04:59.493Z,99309.58
2022-09-15T11:07:36.084Z,99307.02
2022-09-15T11:10:15.896Z,99306.72
2022-09-15T11:12:52.959Z,99307.63
2022-09-15T11:15:39.008Z,99306.86
2022-09-15T11:18:10.236Z,99306.78
2022-09-15T11:20:41.067Z,99319.16
2022-09-15T11:23:18.676Z,99314.64
2022-09-15T11:25:53.339Z,99305.95
2022-09-15T11:28:30.908Z,99307.98
2022-09-15T11:31:02.413Z,99314.34
2022-09-15T11:33:38.054Z,99324.63
2022-09-15T11:36:11.761Z,99324.98
2022-09-15T11:38:48.385Z,99323.86
2022-09-15T11:41:26.425Z,99319.05
2022-09-15T11:43:59.866Z,99312.10
2022-09-15T11:46:43.391Z,99310.52
2022-09-15T11:49:16.545Z,99307.02
2022-09-15T11:51:51.146Z,99301.04
2022-09-15T11:54:24.094Z,99298.30
2022-09-15T11:56:52.658Z,99300.53
2022-09-15T11:59:23.378Z,99298.54
2022-09-15T12:01:57.498Z,99288.38
2022-09-15T12:04:54.494Z,99293.70
2022-09-15T12:07:29.097Z,99291.43
2022-09-15T12:10:04.374Z,99283.92
2022-09-15T12:12:33.540Z,99286.13
2022-09-15T12:15:02.243Z,99281.61
2022-09-15T12:17:35.830Z,99280.86
2022-09-15T12:20:14.085Z,99280.20
2022-09-15T12:22:46.939Z,99281.09
2022-09-15T12:25:16.913Z,99278.20
2022-09-15T12:28:05.145Z,99270.60
2022-09-15T12:30:40.526Z,99272.66
2022-09-15T12:33:43.315Z,99270.02
2022-09-15T12:36:29.732Z,99268.86
2022-09-15T12:38:58.683Z,99274.52
2022-09-15T12:41:27.270Z,99272.37
2022-09-15T12:43:56.104Z,99268.96
2022-09-15T12:46:25.410Z,99261.84
2022-09-15T12:48:57.959Z,99261.70
2022-09-15T12:51:28.197Z,99261.01
2022-09-15T12:53:58.341Z,99256.41
2022-09-15T12:56:27.553Z,99258.91
2022-09-15T12:58:55.989Z,99254.71
2022-09-15T13:01:24.564Z,99247.27
2022-09-15T13:03:57.652Z,99239.73
2022-09-15T13:06:26.998Z,99237.55
2022-09-15T13:09:14.740Z,99244.35
2022-09-15T13:11:45.989Z,99254.82
2022-09-15T13:14:19.553Z,99254.78
2022-09-15T13:16:53.975Z,99247.23
2022-09-15T13:19:33.613Z,99244.36
2022-09-15T13:22:20.763Z,99243.61
2022-09-15T13:25:01.764Z,99239.79
2022-09-15T13:27:35.720Z,99234.11
2022-09-15T13:30:03.857Z,99225.90
2022-09-15T13:32:34.584Z,99215.91
2022-09-15T13:35:18.172Z,99213.59
2022-09-15T13:38:13.537Z,99207.45
2022-09-15T13:40:41.778Z,99198.64
2022-09-15T13:43:22.076Z,99199.08
2022-09-15T13:45:52.935Z,99202.48
2022-09-15T13:48:31.206Z,99200.03
2022-09-15T13:51:00.545Z,99190.41
2022-09-15T13:53:43.047Z,99189.30
2022-09-15T13:56:19.361Z,99182.85
2022-09-15T13:59:01.198Z,99178.33
2022-09-15T14:01:34.389Z,99176.02
2022-09-15T14:04:05.139Z,99170.41
2022-09-15T14:06:33.785Z,99167.23
2022-09-15T14:09:04.587Z,99166.45
2022-09-15T14:11:33.564Z,99166.50
2022-09-15T14:14:01.644Z,99164.65
2022-09-15T14:16:36.628Z,99159.50
2022-09-15T14:19:24.595Z,99157.96
2022-09-15T14:21:56.233Z,99145.21
2022-09-15T14:24:28.462Z,99139.52
2022-09-15T14:27:01.787Z,99130.35
2022-09-15T14:29:30.843Z,99123.82
2022-09-15T14:32:02.348Z,99124.11
2022-09-15T14:34:32.186Z,99125.25
2022-09-15T14:37:07.694Z,99142.50
2022-09-15T14:39:37.731Z,99149.64
2022-09-15T14:42:21.714Z,99146.60
2022-09-15T14:47:39.853Z,99133.92
2022-09-15T14:50:10.943Z,99130.11
2022-09-15T14:53:03.071Z,99124.06
2022-09-15T14:55:38.574Z,99109.89
2022-09-15T14:58:16.136Z,99100.50
2022-09-15T15:00:59.279Z,99096.50
2022-09-15T15:03:47.622Z,99096.02
2022-09-15T15:06:34.067Z,99095.50
2022-09-15T15:09:21.364Z,99098.09
2022-09-15T15:11:54.984Z,99089.59
2022-09-15T15:17:00.340Z,99081.11
2022-09-15T15:19:31.218Z,99082.30
2022-09-15T15:22:08.736Z,99087.36
2022-09-15T15:24:40.024Z,99088.91
2022-09-15T15:27:27.002Z,99094.14
2022-09-15T15:29:55.042Z,99099.48
2022-09-15T15:32:27.841Z,99100.34
2022-09-15T15:34:59.884Z,99100.34
2022-09-15T15:37:29.514Z,99099.50
2022-09-15T15:39:58.908Z,99097.85
2022-09-15T15:42:28.885Z,99089.21
2022-09-15T15:45:03.208Z,99079.88
2022-09-15T15:47:32.529Z,99069.37
2022-09-15T15:50:13.739Z,99067.44
2022-09-15T15:52:43.825Z,99067.69
2022-09-15T15:55:19.529Z,99067.95
2022-09-15T15:57:50.272Z,99068.89
2022-09-15T16:00:22.195Z,99064.91
2022-09-15T16:02:54.095Z,99059.27
2022-09-15T16:05:26.265Z,99055.06
2022-09-15T16:07:55.071Z,99052.15
2022-09-15T16:10:24.263Z,99052.19
2022-09-15T16:12:52.109Z,99053.96
2022-09-15T16:15:21.153Z,99065.14
2022-09-15T16:17:49.197Z,99081.44
2022-09-15T16:20:19.791Z,99088.45
2022-09-15T16:22:47.796Z,99056.57
2022-09-15T16:25:18.242Z,99049.36
2022-09-15T16:27:46.403Z,99066.85
2022-09-15T16:30:14.462Z,99075.79
2022-09-15T16:32:42.627Z,99082.14
2022-09-15T16:35:29.029Z,99091.17
2022-09-15T16:37:56.910Z,99093.15
2022-09-15T16:40:24.725Z,99092.56
2022-09-15T16:42:53.303Z,99097.02
2022-09-15T16:45:27.513Z,99100.17
2022-09-15T16:47:55.875Z,99095.73
2022-09-15T16:50:23.844Z,99094.65
2022-09-15T16:52:52.227Z,99092.20
2022-09-15T16:55:35.979Z,99089.04
2022-09-15T16:58:04.555Z,99079.90
2022-09-15T17:00:34.678Z,99082.05
2022-09-15T17:03:03.157Z,99081.99
2022-09-15T17:05:34.995Z,99088.05
2022-09-15T17:08:03.679Z,99084.27
2022-09-15T17:10:31.685Z,99077.05
2022-09-15T17:13:01.119Z,99066.23
2022-09-15T17:15:30.464Z,99057.91
2022-09-15T17:17:58.309Z,99047.89
2022-09-15T17:20:26.445Z,99060.02
2022-09-15T17:22:54.886Z,99070.77
2022-09-15T17:25:29.225Z,99067.41
2022-09-15T17:27:58.045Z,99064.79
2022-09-15T17:30:27.390Z,99061.55
2022-09-15T17:33:02.096Z,99066.46
2022-09-15T17:35:32.352Z,99067.98
2022-09-15T17:38:00.104Z,99071.73
2022-09-15T17:40:28.536Z,99075.06
2022-09-15T17:42:56.794Z,99076.88
2022-09-15T17:45:26.023Z,99079.42
2022-09-15T17:47:54.313Z,99079.15
2022-09-15T17:50:23.342Z,99075.55
2022-09-15T17:52:51.530Z,99078.25
2022-09-15T17:55:21.695Z,99080.91
2022-09-15T17:57:50.122Z,99077.88
2022-09-15T18:00:19.233Z,99073.42
2022-09-15T18:03:10.201Z,99069.09
2022-09-15T18:05:38.521Z,99072.30
2022-09-15T18:08:06.548Z,99069.89
2022-09-15T18:10:35.678Z,99063.88
2022-09-15T18:13:04.860Z,99069.33
2022-09-15T18:15:34.472Z,99079.09
2022-09-15T18:18:04.407Z,99085.06
2022-09-15T18:20:33.341Z,99087.37
2022-09-15T18:23:01.242Z,99095.98
2022-09-15T18:25:31.057Z,99099.45
2022-09-15T18:27:59.515Z,99110.00
2022-09-15T18:30:29.253Z,99124.69
2022-09-15T18:32:57.994Z,99133.59
2022-09-15T18:35:26.514Z,99135.55
2022-09-15T18:37:56.289Z,99134.18
2022-09-15T18:40:24.987Z,99130.33
2022-09-15T18:42:53.266Z,99123.90
2022-09-15T18:45:21.358Z,99115.95
2022-09-15T18:47:50.925Z,99108.13
2022-09-15T18:50:20.297Z,99108.71
2022-09-15T18:52:48.305Z,99111.21
2022-09-15T18:55:18.270Z,99115.27
2022-09-15T18:57:47.225Z,99109.98
2022-09-15T19:00:16.931Z,99103.01
2022-09-15T19:02:44.941Z,99104.71
2022-09-15T19:05:15.891Z,99106.46
2022-09-15T19:07:44.700Z,99106.55
2022-09-15T19:10:13.988Z,99108.78
2022-09-15T19:12:42.104Z,99106.16
2022-09-15T19:15:11.264Z,99104.37
2022-09-15T19:17:40.438Z,99102.19
2022-09-15T19:20:09.502Z,99106.63
2022-09-15T19:22:38.105Z,99109.22
2022-09-15T19:25:06.580Z,99109.45
2022-09-15T19:27:34.995Z,99111.50
2022-09-15T19:30:02.907Z,99110.70
2022-09-15T19:32:32.479Z,99106.95
2022-09-15T19:35:00.455Z,99101.05
2022-09-15T19:37:28.216Z,99107.12
2022-09-15T19:39:56.532Z,99110.41
2022-09-15T19:42:24.993Z,99108.67
2022-09-15T19:44:52.805Z,99114.36
2022-09-15T19:47:20.462Z,99111.88
2022-09-15T19:49:50.954Z,99111.20
2022-09-15T19:52:19.106Z,99114.83
2022-09-15T19:54:47.959Z,99121.25
2022-09-15T19:57:15.606Z,99122.56
2022-09-15T19:59:44.992Z,99120.92
2022-09-15T20:02:13.565Z,99121.79
2022-09-15T20:04:42.429Z,99119.64
2022-09-15T20:07:10.492Z,99118.42
2022-09-15T20:09:38.335Z,99108.16
2022-09-15T20:12:06.590Z,99108.30
2022-09-15T20:14:34.361Z,99100.70
2022-09-15T20:17:02.224Z,99100.30
2022-09-15T20:19:30.232Z,99103.35
2022-09-15T20:21:58.357Z,99101.20
2022-09-15T20:24:26.268Z,99103.62
2022-09-15T20:26:54.287Z,99104.77
2022-09-15T20:29:23.237Z,99103.54
2022-09-15T20:31:51.482Z,99109.75
2022-09-15T20:34:19.473Z,99106.79
2022-09-15T20:36:47.300Z,99106.34
2022-09-15T20:39:15.704Z,99107.06
2022-09-15T20:41:46.741Z,99109.28
2022-09-15T20:44:29.584Z,99113.33
2022-09-15T20:46:57.318Z,99110.52
2022-09-15T20:49:25.152Z,99123.71
2022-09-15T20:51:53.204Z,99132.66
2022-09-15T20:54:21.189Z,99130.30
2022-09-15T20:56:49.166Z,99131.89
2022-09-15T20:59:16.895Z,99126.23
2022-09-15T21:01:45.032Z,99132.85
2022-09-15T21:04:13.204Z,99128.98
2022-09-15T21:06:41.189Z,99129.44
2022-09-15T21:09:09.384Z,99122.69
2022-09-15T21:11:37.326Z,99122.09
2022-09-15T21:14:05.819Z,99127.27
2022-09-15T21:16:34.950Z,99139.65
2022-09-15T21:19:03.246Z,99143.91
2022-09-15T21:21:32.208Z,99147.82
2022-09-15T21:24:04.517Z,99149.46
2022-09-15T21:26:34.016Z,99150.01
2022-09-15T21:29:02.164Z,99145.52
2022-09-15T21:31:30.922Z,99146.02
2022-09-15T21:33:59.506Z,99152.62
2022-09-15T21:36:29.687Z,99157.04
2022-09-15T21:38:58.790Z,99156.91
2022-09-15T21:41:30.120Z,99160.05
2022-09-15T21:43:59.364Z,99159.84
2022-09-15T21:46:28.163Z,99161.38
2022-09-15T21:48:56.676Z,99162.31
2022-09-15T21:51:25.451Z,99164.26
2022-09-15T21:53:54.760Z,99172.36
2022-09-15T21:56:23.118Z,99171.98
2022-09-15T21:58:51.028Z,99174.12
2022-09-15T22:01:23.662Z,99175.39
2022-09-15T22:04:01.776Z,99175.77
2022-09-15T22:06:32.026Z,99179.21
2022-09-15T22:09:05.016Z,99175.86
2022-09-15T22:11:33.800Z,99178.17
2022-09-15T22:14:03.240Z,99176.95
2022-09-15T22:16:31.061Z,99187.63
2022-09-15T22:18:59.926Z,99187.27
2022-09-15T22:21:29.054Z,99190.69
2022-09-15T22:23:57.734Z,99191.48
2022-09-15T22:26:27.429Z,99194.30
2022-09-15T22:28:56.126Z,99191.13
2022-09-15T22:31:24.712Z,99197.33
2022-09-15T22:33:53.160Z,99200.67
2022-09-15T22:36:26.594Z,99196.77
2022-09-15T22:39:03.714Z,99199.27
2022-09-15T22:41:32.894Z,99193.09
2022-09-15T22:44:01.067Z,99194.45
2022-09-15T22:46:28.864Z,99199.70
2022-09-15T22:48:56.727Z,99197.86
2022-09-15T22:51:24.678Z,99198.00
2022-09-15T22:53:54.284Z,99200.08
2022-09-15T22:56:22.459Z,99203.73
2022-09-15T22:58:50.726Z,99209.73
2022-09-15T23:01:20.296Z,99212.90
2022-09-15T23:03:51.950Z,99212.73
2022-09-15T23:06:20.203Z,99222.85
2022-09-15T23:08:51.903Z,99223.77
2022-09-15T23:11:19.986Z,99227.77
2022-09-15T23:13:48.234Z,99229.53
2022-09-15T23:16:17.005Z,99234.64
2022-09-15T23:18:46.128Z,99235.91
2022-09-15T23:21:14.294Z,99238.09
2022-09-15T23:23:43.326Z,99239.70
2022-09-15T23:26:12.384Z,99242.00
2022-09-15T23:28:40.494Z,99243.70
2022-09-15T23:31:10.294Z,99249.64
2022-09-15T23:33:38.746Z,99256.09
2022-09-15T23:36:07.930Z,99253.30
2022-09-15T23:38:36.998Z,99262.98
2022-09-15T23:41:05.497Z,99263.88
2022-09-15T23:43:33.355Z,99265.58
2022-09-15T23:46:01.740Z,99265.71
2022-09-15T23:48:31.592Z,99262.95
2022-09-15T23:50:59.587Z,99262.27
2022-09-15T23:53:27.554Z,99259.01
2022-09-15T23:55:55.293Z,99260.17
2022-09-15T23:58:23.146Z,99260.73
